Aviation Digital Data Service (ADDS)

Output produced by METARs form (1826 UTC 16 August 2018)
found at http://www.aviationweather.gov/adds/metars/
 
VLLB 161300Z 04002KT 7000 SCT010 OVC070 26/25 Q1001 NOSIG
TAF VLLB 161700Z 1618/1718 27004KT 5000 RA SCT010 BKN040 OVC070
       
VLPS 161300Z 18008KT 9999 SCT017 SCT050 BKN100 27/24 Q1004 NOSIG
TAF VLPS 161700Z 1618/1718 22006KT 5000 RA SCT013 FEW027CB BKN050 BKN100
       
TAF VLSK 161700Z 1618/1718 22006KT 3000 TSRA SCT013 FEW027CB BKN083
       
VLVT 161600Z 24002KT 3000 DZ BKN040 BKN083 26/26 Q1001 NOSIG
TAF VLVT 161700Z 1618/1718 24004KT 3000 RA SCT013 BKN040 BKN083
       
VLLB 161300Z 04002KT 7000 SCT010 OVC070 26/25 Q1001 NOSIG
TAF VLLB 161700Z 1618/1718 27004KT 5000 RA SCT010 BKN040 OVC070
       
TAF VLLN 161700Z 1618/1718 27006KT 3000 TSRA SCT013 FEW027CB BKN090
       
VLPS 161300Z 18008KT 9999 SCT017 SCT050 BKN100 27/24 Q1004 NOSIG
TAF VLPS 161700Z 1618/1718 22006KT 5000 RA SCT013 FEW027CB BKN050 BKN100
       
TAF VLSK 161700Z 1618/1718 22006KT 3000 TSRA SCT013 FEW027CB BKN083
       
VLVT 161600Z 24002KT 3000 DZ BKN040 BKN083 26/26 Q1001 NOSIG
TAF VLVT 161700Z 1618/1718 24004KT 3000 RA SCT013 BKN040 BKN083